GRZ527 Details

Departure: Ted Stevens Anchorage International Airport (PANC)
Arrival: Calgary International Airport (CYYC)
Route: JOH J501 YAK NCA10 YQU Q925 ADVOX ADVOX7


Current Weather Information
PANC 250353Z 24005KT 10SM FEW060 SCT200 18/07 A2975 RMK AO2 SLP075 T01830072
CYYC 250400Z 34005KT 7SM FEW030CB SCT120 12/09 A2982 RMK CB2AC2 VIS VRB 5-10 / SH NE-SE / FRQ LTGCG+LTGIC S-SE SLP103 DENSITY ALT 4300FT